Weather reports worldwide

Advertisment
Bologna, Italy (16132): temperature & dewpoint: 13.03.2019 10:00:00 - 19.03.2019 10:00:00 (CET)Bologna, Italy (16132): reduced air pressure: 13.03.2019 10:00:00 - 19.03.2019 10:00:00 (CET)
Date & Time tt [°C] td [°C] ppp [hPa]
19.03.2019 10:00:00 - - -
19.03.2019 09:00:00 7,0 2,4 1023,2
19.03.2019 08:00:00 6,4 2,6 1022,6
19.03.2019 07:00:00 5,8 2,0 1021,9
19.03.2019 06:00:00 6,2 2,8 1021,5
19.03.2019 05:00:00 6,0 2,6 1021,1
19.03.2019 04:00:00 6,0 2,4 1020,7
19.03.2019 03:00:00 5,9 2,3 1020,7
19.03.2019 02:00:00 6,5 2,3 1020,9
19.03.2019 01:00:00 7,6 3,8 1020,7
19.03.2019 00:00:00 7,7 4,2 1020,5
18.03.2019 23:00:00 7,8 4,0 1020,3
18.03.2019 22:00:00 7,7 4,1 1019,9
18.03.2019 21:00:00 8,1 2,3 1019,3
18.03.2019 20:00:00 8,1 2,1 1018,9
18.03.2019 19:00:00 8,3 1,8 1018,5
18.03.2019 18:00:00 9,0 2,0 1017,9
18.03.2019 17:00:00 9,4 2,6 1016,9
18.03.2019 16:00:00 9,8 2,8 1016,5
18.03.2019 15:00:00 10,5 4,6 1015,8
18.03.2019 14:00:00 11,3 6,0 1015,3
18.03.2019 13:00:00 12,6 6,1 1015,2
18.03.2019 12:00:00 12,1 4,5 1014,7
18.03.2019 11:00:00 12,6 5,4 1013,5
18.03.2019 10:00:00 11,9 6,1 1012,9
18.03.2019 09:00:00 9,3 6,3 1012,6
18.03.2019 08:00:00 8,8 5,9 1012,3
18.03.2019 07:00:00 9,7 6,7 1011,5
18.03.2019 06:00:00 13,2 6,2 1009,2
18.03.2019 05:00:00 13,2 5,5 1009,2
18.03.2019 04:00:00 12,5 4,6 1009,4
18.03.2019 03:00:00 13,0 4,9 1009,8
18.03.2019 02:00:00 13,0 5,1 1010,2
18.03.2019 01:00:00 12,9 4,8 1010,7
18.03.2019 00:00:00 13,3 4,6 1010,9
17.03.2019 23:00:00 13,9 5,2 1011,3
17.03.2019 22:00:00 14,0 5,3 1011,2
17.03.2019 21:00:00 12,9 6,2 1011,3
17.03.2019 20:00:00 14,1 6,4 1011,3
17.03.2019 19:00:00 15,4 6,9 1011,5
17.03.2019 18:00:00 17,7 7,7 1011,3
17.03.2019 17:00:00 18,8 8,7 1011,4
17.03.2019 16:00:00 18,9 8,5 1012,0
17.03.2019 15:00:00 19,8 9,6 1012,3
17.03.2019 14:00:00 18,8 9,0 1013,0
17.03.2019 13:00:00 18,0 8,5 1014,4
17.03.2019 12:00:00 16,8 8,7 1015,4
17.03.2019 11:00:00 14,7 9,4 1016,2
17.03.2019 10:00:00 11,7 8,5 1016,6
17.03.2019 09:00:00 9,7 7,1 1016,8
17.03.2019 08:00:00 6,4 3,9 1016,8
17.03.2019 07:00:00 5,6 2,7 1016,5
17.03.2019 06:00:00 6,9 4,2 1016,2
17.03.2019 05:00:00 7,3 4,6 1015,9
17.03.2019 04:00:00 7,1 4,4 1015,6
17.03.2019 03:00:00 7,7 5,0 1015,7
17.03.2019 02:00:00 9,1 6,2 1016,0
17.03.2019 01:00:00 9,0 6,1 1015,6
17.03.2019 00:00:00 10,0 5,9 1015,8
16.03.2019 23:00:00 15,7 7,4 1015,2
16.03.2019 22:00:00 16,4 7,3 1014,5
16.03.2019 21:00:00 17,5 7,2 1014,3
16.03.2019 20:00:00 18,2 6,6 1013,6
16.03.2019 19:00:00 19,5 7,2 1013,3
16.03.2019 18:00:00 21,2 8,4 1012,8
16.03.2019 17:00:00 22,5 8,9 1012,7
16.03.2019 16:00:00 22,3 9,4 1012,8
16.03.2019 15:00:00 22,2 9,7 1013,2
16.03.2019 14:00:00 21,4 8,6 1013,5
16.03.2019 13:00:00 20,1 7,7 1014,4
16.03.2019 12:00:00 19,6 7,9 1014,9
16.03.2019 11:00:00 17,6 6,4 1014,9
16.03.2019 10:00:00 15,1 7,6 1014,8
16.03.2019 09:00:00 10,5 7,5 1014,9
16.03.2019 08:00:00 - - -
16.03.2019 07:00:00 5,6 2,7 1013,4
16.03.2019 06:00:00 6,5 3,6 1013,2
16.03.2019 05:00:00 7,4 4,3 1012,9
16.03.2019 04:00:00 7,4 3,8 1012,7
16.03.2019 03:00:00 8,1 3,1 1012,8
16.03.2019 02:00:00 8,9 3,2 1012,9
16.03.2019 01:00:00 8,9 3,7 1012,8
16.03.2019 00:00:00 9,7 2,9 1012,9
15.03.2019 23:00:00 9,6 2,6 1012,8
15.03.2019 22:00:00 10,8 3,7 1012,3
15.03.2019 21:00:00 13,1 5,2 1011,4
15.03.2019 20:00:00 14,8 6,0 1011,0
15.03.2019 19:00:00 16,3 5,8 1010,5
15.03.2019 18:00:00 18,4 5,2 1010,2
15.03.2019 17:00:00 20,0 5,2 1009,5
15.03.2019 16:00:00 20,6 5,3 1009,4
15.03.2019 15:00:00 20,6 5,7 1009,9
15.03.2019 14:00:00 20,0 6,6 1009,7
15.03.2019 13:00:00 18,7 4,7 1010,3
15.03.2019 12:00:00 17,7 5,5 1011,1
15.03.2019 11:00:00 14,8 2,9 1011,6
15.03.2019 10:00:00 13,6 2,4 1011,6
15.03.2019 09:00:00 10,7 -0,3 1010,9
15.03.2019 08:00:00 9,9 1,9 1010,9
15.03.2019 07:00:00 6,6 -1,4 1010,4
15.03.2019 06:00:00 6,8 -3,0 1009,9
15.03.2019 05:00:00 6,3 -3,7 1009,5
15.03.2019 04:00:00 5,8 -1,9 1009,2
15.03.2019 03:00:00 7,3 -0,3 1009,0
15.03.2019 02:00:00 7,5 -2,9 1008,5
15.03.2019 01:00:00 7,6 -6,0 1008,2
15.03.2019 00:00:00 8,2 -4,4 1008,4
14.03.2019 23:00:00 9,3 -3,7 1008,4
14.03.2019 22:00:00 10,9 -3,3 1008,7
14.03.2019 21:00:00 11,9 -0,7 1009,1
14.03.2019 20:00:00 12,8 -1,3 1009,6
14.03.2019 19:00:00 14,4 -0,2 1009,7
14.03.2019 18:00:00 14,6 -0,8 1009,8
14.03.2019 17:00:00 15,0 -1,7 1009,7
14.03.2019 16:00:00 15,4 -0,9 1010,9
14.03.2019 15:00:00 16,4 0,4 1011,5
14.03.2019 14:00:00 15,4 1,0 1012,4
14.03.2019 13:00:00 14,6 0,0 1013,9
14.03.2019 12:00:00 14,3 2,7 1014,5
14.03.2019 11:00:00 11,6 1,4 1015,2
14.03.2019 10:00:00 9,9 2,2 1015,9
14.03.2019 09:00:00 6,8 1,4 1016,1
14.03.2019 08:00:00 3,8 0,6 1016,1
14.03.2019 07:00:00 2,0 -0,8 1016,2
14.03.2019 06:00:00 2,3 -0,5 1016,0
14.03.2019 05:00:00 3,2 0,4 1015,9
14.03.2019 04:00:00 3,1 0,3 1015,7
14.03.2019 03:00:00 3,3 0,5 1015,3
14.03.2019 02:00:00 3,1 0,3 1015,3
14.03.2019 01:00:00 3,3 0,5 1015,4
14.03.2019 00:00:00 3,1 0,3 1015,3
13.03.2019 23:00:00 4,2 1,4 1014,9
13.03.2019 22:00:00 5,0 2,1 1014,3
13.03.2019 21:00:00 6,0 2,2 1013,9
13.03.2019 20:00:00 7,2 2,8 1013,6
13.03.2019 19:00:00 8,5 2,0 1013,1
13.03.2019 18:00:00 8,5 2,4 1012,5
13.03.2019 17:00:00 9,5 2,0 1012,4
13.03.2019 16:00:00 9,7 2,2 1012,3
13.03.2019 15:00:00 - - -
13.03.2019 14:00:00 - - -
13.03.2019 13:00:00 10,5 -1,0 1013,6
13.03.2019 12:00:00 - - -
13.03.2019 11:00:00 11,4 -2,2 1013,5
13.03.2019 10:00:00 9,7 -3,0 1014,2

tt = temperature
td = dewpoint
ppp = reduced air pressure

Next stations